createdAt,value
2019-01-16T00:02:20.711Z,24.83
2019-01-16T00:05:09.406Z,11.27
2019-01-16T00:08:02.459Z,23.40
2019-01-16T00:10:49.868Z,20.97
2019-01-16T00:13:43.152Z,16.43
2019-01-16T00:16:22.184Z,18.23
2019-01-16T00:18:59.039Z,19.10
2019-01-16T00:21:46.684Z,20.73
2019-01-16T00:24:35.368Z,23.60
2019-01-16T00:27:22.667Z,17.37
2019-01-16T00:30:20.663Z,15.07
2019-01-16T00:33:18.431Z,16.83
2019-01-16T00:36:17.836Z,16.63
2019-01-16T00:39:05.608Z,10.40
2019-01-16T00:41:47.758Z,15.43
2019-01-16T00:44:35.283Z,13.90
2019-01-16T00:47:42.282Z,15.63
2019-01-16T00:50:37.078Z,14.50
2019-01-16T00:53:28.769Z,21.00
2019-01-16T00:56:16.752Z,13.27
2019-01-16T00:59:17.862Z,12.43
2019-01-16T01:02:25.019Z,16.43
2019-01-16T01:05:03.044Z,14.40
2019-01-16T01:07:50.362Z,12.90
2019-01-16T01:10:48.193Z,12.30
2019-01-16T01:13:40.903Z,12.57
2019-01-16T01:16:28.303Z,16.80
2019-01-16T01:19:25.985Z,14.73
2019-01-16T01:22:15.051Z,14.60
2019-01-16T01:25:09.895Z,15.10
2019-01-16T01:27:58.579Z,15.73
2019-01-16T01:30:43.886Z,13.10
2019-01-16T01:33:31.823Z,10.73
2019-01-16T01:36:27.239Z,13.10
2019-01-16T01:39:16.386Z,18.73
2019-01-16T01:42:03.755Z,17.77
2019-01-16T01:44:51.034Z,14.07
2019-01-16T01:47:38.695Z,13.20
2019-01-16T01:50:27.858Z,17.20
2019-01-16T01:53:15.060Z,17.20
2019-01-16T01:56:06.777Z,10.73
2019-01-16T01:58:55.478Z,12.07
2019-01-16T02:01:43.132Z,15.77
2019-01-16T02:04:27.435Z,17.13
2019-01-16T02:07:11.356Z,21.33
2019-01-16T02:10:01.863Z,16.70
2019-01-16T02:13:06.159Z,15.83
2019-01-16T02:16:13.267Z,16.70
2019-01-16T02:18:58.214Z,12.20
2019-01-16T02:21:49.630Z,19.77
2019-01-16T02:24:38.300Z,17.23
2019-01-16T02:27:25.935Z,14.87
2019-01-16T02:30:23.699Z,16.67
2019-01-16T02:33:09.898Z,13.73
2019-01-16T02:35:47.912Z,17.57
2019-01-16T02:38:34.083Z,20.90
2019-01-16T02:41:13.468Z,15.40
2019-01-16T02:43:53.993Z,15.93
2019-01-16T02:46:44.622Z,20.10
2019-01-16T02:49:51.672Z,16.00
2019-01-16T02:52:32.860Z,19.73
2019-01-16T02:55:39.627Z,17.67
2019-01-16T02:58:15.316Z,19.40
2019-01-16T03:01:04.322Z,18.13
2019-01-16T03:03:58.131Z,13.50
2019-01-16T03:06:47.995Z,16.17
2019-01-16T03:09:28.079Z,22.40
2019-01-16T03:12:22.959Z,19.73
2019-01-16T03:15:10.656Z,17.33
2019-01-16T03:18:08.425Z,19.73
2019-01-16T03:21:05.940Z,12.60
2019-01-16T03:24:01.443Z,20.00
2019-01-16T03:26:48.996Z,20.00
2019-01-16T03:29:40.786Z,17.30
2019-01-16T03:32:32.287Z,18.80
2019-01-16T03:35:10.123Z,15.70
2019-01-16T03:38:01.668Z,15.13
2019-01-16T03:40:48.984Z,16.57
2019-01-16T03:43:43.576Z,20.87
2019-01-16T03:46:29.547Z,18.57
2019-01-16T03:49:18.096Z,19.33
2019-01-16T03:52:00.436Z,17.97
2019-01-16T03:54:55.520Z,16.57
2019-01-16T03:57:43.150Z,22.27
2019-01-16T04:00:25.874Z,22.33
2019-01-16T04:03:13.370Z,20.50
2019-01-16T04:06:14.437Z,15.10
2019-01-16T04:09:02.177Z,18.40
2019-01-16T04:11:51.656Z,13.73
2019-01-16T04:14:32.608Z,17.17
2019-01-16T04:17:17.058Z,16.37
2019-01-16T04:20:06.244Z,15.10
2019-01-16T04:23:07.224Z,24.93
2019-01-16T04:26:01.976Z,16.13
2019-01-16T04:28:42.400Z,20.20
2019-01-16T04:31:29.225Z,25.00
2019-01-16T04:34:16.758Z,17.30
2019-01-16T04:36:58.354Z,20.83
2019-01-16T04:39:46.008Z,20.57
2019-01-16T04:42:29.420Z,18.17
2019-01-16T04:45:15.783Z,16.40
2019-01-16T04:48:03.644Z,16.60
2019-01-16T04:51:00.299Z,19.67
2019-01-16T04:53:59.204Z,17.00
2019-01-16T04:56:38.411Z,20.80
2019-01-16T04:59:18.664Z,12.77
2019-01-16T05:02:10.279Z,17.73
2019-01-16T05:04:54.636Z,15.93
2019-01-16T05:07:42.304Z,21.90
2019-01-16T05:10:37.174Z,20.00
2019-01-16T05:13:34.990Z,19.37
2019-01-16T05:16:29.341Z,16.03
2019-01-16T05:19:17.227Z,20.47
2019-01-16T05:22:12.020Z,16.33
2019-01-16T05:25:01.351Z,16.13
2019-01-16T05:27:55.526Z,16.43
2019-01-16T05:30:38.472Z,17.23
2019-01-16T05:33:23.671Z,15.70
2019-01-16T05:36:11.250Z,20.40
2019-01-16T05:39:05.767Z,16.17
2019-01-16T05:41:45.284Z,21.23
2019-01-16T05:44:46.417Z,18.23
2019-01-16T05:47:27.395Z,19.97
2019-01-16T05:50:06.204Z,23.67
2019-01-16T05:52:57.739Z,19.47
2019-01-16T05:55:46.603Z,20.33
2019-01-16T05:58:33.891Z,16.47
2019-01-16T06:01:21.947Z,19.00
2019-01-16T06:04:19.563Z,19.73
2019-01-16T06:07:06.033Z,27.50
2019-01-16T06:09:48.131Z,15.67
2019-01-16T06:12:28.484Z,24.83
2019-01-16T06:15:16.048Z,22.67
2019-01-16T06:18:10.547Z,20.00
2019-01-16T06:20:54.142Z,17.70
2019-01-16T06:23:41.919Z,21.70
2019-01-16T06:26:28.372Z,17.40
2019-01-16T06:29:16.263Z,16.87
2019-01-16T06:32:03.873Z,18.37
2019-01-16T06:34:46.758Z,22.07
2019-01-16T06:37:34.262Z,20.37
2019-01-16T06:40:23.453Z,19.73
2019-01-16T06:43:21.135Z,26.73
2019-01-16T06:45:57.163Z,24.57
2019-01-16T06:48:38.643Z,24.40
2019-01-16T06:51:33.311Z,26.13
2019-01-16T06:54:22.009Z,24.13
2019-01-16T06:57:19.786Z,19.37
2019-01-16T07:00:02.886Z,23.40
2019-01-16T07:02:45.118Z,23.70
2019-01-16T07:05:45.951Z,26.30
2019-01-16T07:08:33.491Z,21.73
2019-01-16T07:11:20.917Z,22.63
2019-01-16T07:14:24.944Z,24.10
2019-01-16T07:17:21.219Z,21.93
2019-01-16T07:20:09.842Z,23.00
2019-01-16T07:23:10.815Z,22.33
2019-01-16T07:25:59.295Z,21.27
2019-01-16T07:28:44.983Z,23.70
2019-01-16T07:31:23.616Z,20.37
2019-01-16T07:34:08.162Z,20.03
2019-01-16T07:37:03.146Z,24.00
2019-01-16T07:39:57.692Z,20.97
2019-01-16T07:42:46.959Z,24.60
2019-01-16T07:45:39.919Z,19.80
2019-01-16T07:48:27.319Z,21.87
2019-01-16T07:51:11.976Z,20.37
2019-01-16T07:54:03.767Z,22.43
2019-01-16T07:56:52.031Z,19.70
2019-01-16T07:59:39.267Z,21.53
2019-01-16T08:02:24.563Z,20.27
2019-01-16T08:05:20.936Z,20.70
2019-01-16T08:08:28.407Z,20.63
2019-01-16T08:11:26.084Z,16.70
2019-01-16T08:14:16.651Z,21.07
2019-01-16T08:17:08.224Z,16.43
2019-01-16T08:19:48.505Z,26.33
2019-01-16T08:22:27.912Z,13.90
2019-01-16T08:25:10.971Z,19.33
2019-01-16T08:28:04.651Z,17.03
2019-01-16T08:30:52.209Z,14.10
2019-01-16T08:33:59.275Z,13.97
2019-01-16T08:36:46.931Z,19.90
2019-01-16T08:39:35.720Z,20.13
2019-01-16T08:42:24.565Z,13.73
2019-01-16T08:45:11.725Z,14.67
2019-01-16T08:48:09.446Z,20.27
2019-01-16T08:51:04.194Z,17.77
2019-01-16T08:53:51.915Z,19.00
2019-01-16T08:56:39.243Z,14.40
2019-01-16T08:59:36.939Z,19.50
2019-01-16T09:02:20.634Z,13.90
2019-01-16T09:05:05.623Z,11.77
2019-01-16T09:07:53.500Z,18.57
2019-01-16T09:10:40.458Z,13.40
2019-01-16T09:13:31.122Z,11.30
2019-01-16T09:16:30.558Z,11.07
2019-01-16T09:19:14.323Z,13.20
2019-01-16T09:22:02.053Z,11.00
2019-01-16T09:24:42.980Z,10.97
2019-01-16T09:27:33.775Z,16.83
2019-01-16T09:30:18.561Z,13.17
2019-01-16T09:32:57.159Z,15.73
2019-01-16T09:35:39.891Z,11.17
2019-01-16T09:38:34.463Z,11.63
2019-01-16T09:41:16.275Z,15.10
2019-01-16T09:44:20.335Z,10.20
2019-01-16T09:47:09.263Z,11.63
2019-01-16T09:49:56.551Z,12.97
2019-01-16T09:52:47.067Z,11.60
2019-01-16T09:55:41.803Z,12.00
2019-01-16T09:58:30.531Z,12.00
2019-01-16T10:01:11.576Z,10.83
2019-01-16T10:03:57.918Z,11.90
2019-01-16T10:06:41.028Z,11.20
2019-01-16T10:09:32.836Z,11.57
2019-01-16T10:12:21.399Z,12.00
2019-01-16T10:15:08.879Z,9.77
2019-01-16T10:17:57.884Z,9.33
2019-01-16T10:20:46.153Z,19.93
2019-01-16T10:23:23.646Z,14.23
2019-01-16T10:26:21.507Z,11.47
2019-01-16T10:29:10.887Z,25.87
2019-01-16T10:31:59.635Z,10.53
2019-01-16T10:34:48.671Z,11.53
2019-01-16T10:37:37.427Z,12.90
2019-01-16T10:40:26.284Z,11.33
2019-01-16T10:43:11.267Z,11.90
2019-01-16T10:45:56.557Z,12.03
2019-01-16T10:48:51.554Z,11.47
2019-01-16T10:51:40.416Z,13.90
2019-01-16T10:54:35.459Z,14.90
2019-01-16T10:57:24.314Z,16.53
2019-01-16T11:00:12.094Z,17.23
2019-01-16T11:02:54.181Z,16.63
2019-01-16T11:05:47.662Z,15.50
2019-01-16T11:08:45.407Z,17.67
2019-01-16T11:11:43.212Z,16.23
2019-01-16T11:14:27.247Z,16.83
2019-01-16T11:17:26.543Z,19.43
2019-01-16T11:20:11.912Z,15.63
2019-01-16T11:22:56.313Z,16.43
2019-01-16T11:25:42.575Z,15.30
2019-01-16T11:28:33.994Z,14.50
2019-01-16T11:31:21.567Z,19.10
2019-01-16T11:34:01.991Z,17.00
2019-01-16T11:36:49.588Z,17.37
2019-01-16T11:39:37.403Z,17.63
2019-01-16T11:42:27.758Z,17.57
2019-01-16T11:45:25.484Z,18.37
2019-01-16T11:48:14.198Z,22.03
2019-01-16T11:51:01.623Z,17.77
2019-01-16T11:53:49.704Z,18.17
2019-01-16T11:56:29.758Z,18.30
2019-01-16T11:59:12.096Z,18.87
2019-01-16T12:01:55.187Z,18.20
2019-01-16T12:04:43.655Z,19.07
2019-01-16T12:07:19.940Z,16.77
2019-01-16T12:10:07.355Z,15.43
2019-01-16T12:13:08.177Z,16.67
2019-01-16T12:15:56.839Z,17.80
2019-01-16T12:18:44.187Z,18.43
2019-01-16T12:21:31.694Z,17.10
2019-01-16T12:24:20.393Z,17.73
2019-01-16T12:27:12.162Z,15.70
2019-01-16T12:29:55.171Z,14.60
2019-01-16T12:32:53.088Z,14.77
2019-01-16T12:35:48.071Z,16.03
2019-01-16T12:38:28.098Z,15.13
2019-01-16T12:41:25.898Z,15.43
2019-01-16T12:44:13.327Z,15.90
2019-01-16T12:47:00.955Z,18.50
2019-01-16T12:49:58.706Z,13.30
2019-01-16T12:52:54.301Z,15.10
2019-01-16T12:55:50.166Z,20.73
2019-01-16T12:58:37.667Z,14.57
2019-01-16T13:01:41.632Z,13.47
2019-01-16T13:04:39.022Z,16.50
2019-01-16T13:07:30.620Z,18.47
2019-01-16T13:10:27.112Z,13.30
2019-01-16T13:13:14.731Z,15.40
2019-01-16T13:16:16.736Z,14.10
2019-01-16T13:19:12.424Z,15.83
2019-01-16T13:21:52.901Z,15.20
2019-01-16T13:24:39.603Z,15.43
2019-01-16T13:27:36.957Z,12.07
2019-01-16T13:30:26.396Z,13.70
2019-01-16T13:33:30.470Z,12.50
2019-01-16T13:36:20.724Z,12.57
2019-01-16T13:39:18.411Z,12.03
2019-01-16T13:42:16.385Z,11.13
2019-01-16T13:45:02.152Z,10.27
2019-01-16T13:47:51.906Z,9.50
2019-01-16T13:50:43.790Z,9.93
2019-01-16T13:53:35.035Z,9.57
2019-01-16T13:56:18.024Z,10.70
2019-01-16T13:59:19.003Z,11.50
2019-01-16T14:02:07.982Z,9.43
2019-01-16T14:04:55.646Z,15.80
2019-01-16T14:07:49.366Z,11.50
2019-01-16T14:10:39.394Z,10.50
2019-01-16T14:13:19.123Z,8.37
2019-01-16T14:15:59.326Z,9.80
2019-01-16T14:18:51.127Z,9.23
2019-01-16T14:21:40.904Z,8.23
2019-01-16T14:24:27.410Z,9.23
2019-01-16T14:27:26.647Z,10.23
2019-01-16T14:30:12.786Z,7.63
2019-01-16T14:33:03.468Z,6.80
2019-01-16T14:35:42.718Z,6.80
2019-01-16T14:38:30.011Z,7.40
2019-01-16T14:41:18.137Z,8.17
2019-01-16T14:44:06.074Z,8.03
2019-01-16T14:46:54.746Z,7.47
2019-01-16T14:49:35.135Z,7.60
2019-01-16T14:52:17.743Z,8.63
2019-01-16T14:55:09.617Z,6.97
2019-01-16T14:57:57.027Z,6.80
2019-01-16T15:00:54.286Z,6.53
2019-01-16T15:03:58.201Z,7.50
2019-01-16T15:06:36.592Z,9.43
2019-01-16T15:09:33.150Z,7.37
2019-01-16T15:12:37.161Z,6.40
2019-01-16T15:15:25.534Z,6.83
2019-01-16T15:18:15.301Z,7.27
2019-01-16T15:21:12.422Z,9.53
2019-01-16T15:23:59.795Z,7.50
2019-01-16T15:26:48.495Z,10.20
2019-01-16T15:29:36.018Z,8.30
2019-01-16T15:32:31.072Z,6.33
2019-01-16T15:35:11.820Z,6.80
2019-01-16T15:38:12.983Z,7.17
2019-01-16T15:41:00.391Z,6.80
2019-01-16T15:43:47.797Z,10.93
2019-01-16T15:46:42.728Z,6.30
2019-01-16T15:49:30.452Z,6.63
2019-01-16T15:52:15.185Z,6.27
2019-01-16T15:55:12.976Z,7.70
2019-01-16T15:58:04.864Z,6.10
2019-01-16T16:00:55.078Z,6.50
2019-01-16T16:03:35.147Z,12.37
2019-01-16T16:06:27.419Z,9.90
2019-01-16T16:09:15.399Z,14.27
2019-01-16T16:12:04.688Z,8.10
2019-01-16T16:14:50.679Z,8.00
2019-01-16T16:17:38.408Z,8.07
2019-01-16T16:20:31.271Z,6.90
2019-01-16T16:23:11.208Z,10.33
2019-01-16T16:25:58.631Z,6.80
2019-01-16T16:28:36.110Z,8.10
2019-01-16T16:31:26.107Z,10.40
2019-01-16T16:34:33.053Z,10.60
2019-01-16T16:37:16.729Z,13.70
2019-01-16T16:40:24.807Z,11.07
2019-01-16T16:43:13.499Z,9.03
2019-01-16T16:45:51.994Z,15.63
2019-01-16T16:48:47.003Z,11.63
2019-01-16T16:51:41.843Z,10.00
2019-01-16T16:54:39.608Z,11.47
2019-01-16T16:57:19.746Z,12.50
2019-01-16T17:00:02.359Z,11.90
2019-01-16T17:02:50.683Z,14.33
2019-01-16T17:05:54.951Z,16.77
2019-01-16T17:08:42.627Z,19.30
2019-01-16T17:11:35.029Z,15.83
2019-01-16T17:14:25.587Z,15.30
2019-01-16T17:17:04.520Z,16.40
2019-01-16T17:19:52.217Z,16.73
2019-01-16T17:22:34.871Z,18.97
2019-01-16T17:25:23.595Z,15.87
2019-01-16T17:28:15.044Z,17.83
2019-01-16T17:31:12.811Z,17.00
2019-01-16T17:34:07.359Z,24.83
2019-01-16T17:36:58.895Z,19.50
2019-01-16T17:39:37.980Z,25.13
2019-01-16T17:42:27.570Z,16.83
2019-01-16T17:45:15.147Z,19.07
2019-01-16T17:48:03.865Z,23.17
2019-01-16T17:50:46.727Z,16.40
2019-01-16T17:53:29.316Z,20.00
2019-01-16T17:56:26.616Z,17.50
2019-01-16T17:59:18.115Z,20.30
2019-01-16T18:01:58.979Z,13.90
2019-01-16T18:04:34.915Z,17.27
2019-01-16T18:07:22.908Z,18.83
2019-01-16T18:10:10.495Z,17.73
2019-01-16T18:12:58.180Z,18.20
2019-01-16T18:15:45.680Z,19.53
2019-01-16T18:18:43.252Z,14.20
2019-01-16T18:21:35.047Z,18.73
2019-01-16T18:24:24.334Z,15.50
2019-01-16T18:27:16.762Z,17.90
2019-01-16T18:30:04.630Z,17.63
2019-01-16T18:32:47.287Z,19.63
2019-01-16T18:35:26.136Z,23.17
2019-01-16T18:38:13.891Z,15.20
2019-01-16T18:41:05.907Z,16.07
2019-01-16T18:43:51.997Z,17.70
2019-01-16T18:46:46.694Z,19.50
2019-01-16T18:49:39.127Z,14.30
2019-01-16T18:52:25.039Z,14.03
2019-01-16T18:55:12.677Z,14.73
2019-01-16T18:58:13.485Z,13.60
2019-01-16T19:01:01.388Z,13.93
2019-01-16T19:03:41.784Z,15.37
2019-01-16T19:06:29.297Z,14.10
2019-01-16T19:09:16.707Z,13.43
2019-01-16T19:12:03.711Z,13.23
2019-01-16T19:14:49.936Z,12.93
2019-01-16T19:17:41.375Z,11.07
2019-01-16T19:20:23.369Z,15.87
2019-01-16T19:23:15.610Z,11.77
2019-01-16T19:26:02.963Z,12.63
2019-01-16T19:28:50.416Z,13.53
2019-01-16T19:31:41.985Z,13.53
2019-01-16T19:34:25.552Z,15.17
2019-01-16T19:37:13.767Z,16.63
2019-01-16T19:39:59.955Z,16.27
2019-01-16T19:42:59.482Z,12.93
2019-01-16T19:45:47.239Z,16.30
2019-01-16T19:48:51.351Z,22.23
2019-01-16T19:51:37.692Z,14.13
2019-01-16T19:54:18.600Z,15.60
2019-01-16T19:57:02.403Z,23.83
2019-01-16T19:59:49.231Z,14.70
2019-01-16T20:02:36.755Z,19.57
2019-01-16T20:05:30.841Z,20.43
2019-01-16T20:08:15.824Z,19.47
2019-01-16T20:11:10.350Z,21.37
2019-01-16T20:13:54.247Z,20.47
2019-01-16T20:16:41.990Z,19.97
2019-01-16T20:19:24.689Z,18.13
2019-01-16T20:22:19.602Z,22.70
2019-01-16T20:24:58.016Z,17.70
2019-01-16T20:27:59.056Z,18.67
2019-01-16T20:30:46.598Z,15.97
2019-01-16T20:33:34.385Z,19.87
2019-01-16T20:36:18.655Z,22.07
2019-01-16T20:39:01.475Z,19.40
2019-01-16T20:41:53.533Z,24.23
2019-01-16T20:44:50.655Z,20.90
2019-01-16T20:47:51.731Z,23.23
2019-01-16T20:50:40.447Z,18.47
2019-01-16T20:53:46.527Z,18.60
2019-01-16T20:56:35.323Z,18.50
2019-01-16T20:59:42.679Z,18.90
2019-01-16T21:02:33.667Z,22.33
2019-01-16T21:05:23.103Z,22.80
2019-01-16T21:08:12.419Z,19.00
2019-01-16T21:11:04.791Z,17.37
2019-01-16T21:13:55.272Z,18.23
2019-01-16T21:16:52.614Z,21.13
2019-01-16T21:19:37.804Z,21.47
2019-01-16T21:22:25.420Z,16.80
2019-01-16T21:25:23.032Z,15.93
2019-01-16T21:28:11.728Z,14.13
2019-01-16T21:31:09.641Z,19.80
2019-01-16T21:34:07.441Z,17.10
2019-01-16T21:36:56.866Z,19.93
2019-01-16T21:39:44.351Z,18.03
2019-01-16T21:42:36.287Z,16.80
2019-01-16T21:45:25.970Z,19.17
2019-01-16T21:48:08.719Z,19.00
2019-01-16T21:50:56.215Z,19.57
2019-01-16T21:53:45.161Z,17.60
2019-01-16T21:56:44.062Z,20.37
2019-01-16T21:59:21.386Z,23.50
2019-01-16T22:02:09.866Z,16.83
2019-01-16T22:05:07.865Z,18.17
2019-01-16T22:07:46.250Z,20.27
2019-01-16T22:10:38.672Z,19.93
2019-01-16T22:13:30.179Z,18.10
2019-01-16T22:16:21.747Z,21.10
2019-01-16T22:19:13.271Z,17.20
2019-01-16T22:22:14.038Z,14.70
2019-01-16T22:25:09.323Z,14.63
2019-01-16T22:28:09.942Z,17.93
2019-01-16T22:30:57.119Z,14.87
2019-01-16T22:33:53.852Z,18.63
2019-01-16T22:36:37.495Z,20.00
2019-01-16T22:39:25.687Z,17.30
2019-01-16T22:42:04.467Z,18.33
2019-01-16T22:44:59.027Z,14.60
2019-01-16T22:47:50.171Z,17.50
2019-01-16T22:50:51.219Z,20.37
2019-01-16T22:53:30.431Z,18.97
2019-01-16T22:56:11.928Z,17.17
2019-01-16T22:58:53.625Z,19.00
2019-01-16T23:01:43.382Z,15.57
2019-01-16T23:04:30.826Z,19.33
2019-01-16T23:07:31.651Z,19.60
2019-01-16T23:10:35.698Z,20.37
2019-01-16T23:13:19.401Z,19.33
2019-01-16T23:16:10.910Z,18.23
2019-01-16T23:18:59.773Z,17.87
2019-01-16T23:21:44.351Z,20.10
2019-01-16T23:24:23.179Z,19.13
2019-01-16T23:27:12.116Z,18.20
2019-01-16T23:29:58.869Z,18.17
2019-01-16T23:32:50.701Z,19.27
2019-01-16T23:35:37.696Z,15.20
2019-01-16T23:38:29.184Z,16.77
2019-01-16T23:41:16.524Z,18.93
2019-01-16T23:43:55.878Z,18.73
2019-01-16T23:46:38.095Z,17.73
2019-01-16T23:49:32.967Z,19.50
2019-01-16T23:52:17.144Z,20.80
2019-01-16T23:55:01.554Z,19.07
2019-01-16T23:57:56.457Z,17.10
